﻿ProjectID	SampleID	SampleType	TaxonomyID	UniqCodeType	UniqCode	SampleName	ScientificName	CommonName	CollectionYear	CollectionMonth	CollectionDay	SamplingTimeStartEnd	SamplingTimeAMPM	SamplingDuration	WeatherStartEnd	CollectionRegion	CollectionCountry	CollectionArea	CollectionLatitudeFrom	CollectionLatitudeTo	CollectionLongitudeFrom	CollectionLongitudeTo	Sex	TissueOrgan	TissueLipid	TissueMoist	Weight	WeightUnit	Length	LengthUnit	LengthType	GrowthStage	Age	Disease	TemperatureStartEnd	WaterTemperatureStartEnd	pH	DO	EC	EC_temp	Salinity	SS	WaterDepthM	TransparencyM	WaterColor	SedimentTemperatureStartEnd	SedimentDepthM	SedimentAppearance	SedimentColor	SedimentSurfaceColor	SedimentOdor	SedimentImpurities	SedimentMoistureOnSiteAnalysis	IgnitionLossOnSiteAnalysis	SoilDepthM	FlowRate	MeanPM10	MeanTotalSuspendedParticles	HumidityStartEnd	WindDirectionStartEnd	WindSpeedMSStartEnd	AmountOfCollectedAirStartEnd	Remarks	RegisterDate	UpdateDate
PRA000018	SAA000647	ST003	9606			E-03	"Homo sapiens"	Human	2003							Asia	Japan	Ehime	32.88472222	34.30166667	132.0125	133.6930556	Female	Adipose	79.34								"59 y.o."	"Acute lymphocytic leukemia"																													"Measenteric fat; Same sample as SAA000637"	2016/12/12	2016/12/12
PRA000018	SAA000648	ST003	9606			E-04	"Homo sapiens"	Human	2004							Asia	Japan	Ehime	32.88472222	34.30166667	132.0125	133.6930556	Male	Adipose	64.88								"69 y.o."	"Cervical lymphnode metastatic cancer of unknown origin"																													"Measenteric fat; Same sample as SAA000628"	2016/12/12	2016/12/12
PRA000018	SAA000649	ST003	9606			E-05	"Homo sapiens"	Human	2004							Asia	Japan	Ehime	32.88472222	34.30166667	132.0125	133.6930556	Female	Adipose	75.07								"53 y.o."	"Acute myelocytic leukemia "																													"Measenteric fat; Same sample as SAA000638"	2016/12/12	2016/12/12
PRA000018	SAA000650	ST003	9606			E-06	"Homo sapiens"	Human	2004							Asia	Japan	Ehime	32.88472222	34.30166667	132.0125	133.6930556	Female	Adipose	61.24								"69 y.o."	"Carcinoma of the gallbladder "																													"Measenteric fat; Same sample as SAA000639"	2016/12/12	2016/12/12
PRA000018	SAA000651	ST003	9606			E-07	"Homo sapiens"	Human	2004							Asia	Japan	Ehime	32.88472222	34.30166667	132.0125	133.6930556	Female	Adipose	65.76								"72 y.o."	"Hepatic insufficiency, liver cirrhosis "																													"Measenteric fat; Same sample as SAA000640"	2016/12/12	2016/12/12
PRA000018	SAA000652	ST003	9606			E-08	"Homo sapiens"	Human	2004							Asia	Japan	Ehime	32.88472222	34.30166667	132.0125	133.6930556	Male	Adipose	74.09								"25 y.o."	Rhabdomyosarcoma																													"Measenteric fat; Same sample as SAA000619"	2016/12/12	2016/12/12
PRA000018	SAA000653	ST003	9606			E-09	"Homo sapiens"	Human	2004							Asia	Japan	Ehime	32.88472222	34.30166667	132.0125	133.6930556	Male	Adipose	65.94								"57 y.o."	Cholangiocarcinoma																													"Measenteric fat; Same sample as SAA000624"	2016/12/12	2016/12/12
PRA000018	SAA000654	ST003	9606			E-10	"Homo sapiens"	Human	2004							Asia	Japan	Ehime	32.88472222	34.30166667	132.0125	133.6930556	Male	Adipose	81.36								"76 y.o."	"Pneumonia, idiopathic interstitial pneumonia "																													"Measenteric fat; Same sample as SAA000631"	2016/12/12	2016/12/12
PRA000018	SAA000655	ST003	9606			E-11	"Homo sapiens"	Human	2004							Asia	Japan	Ehime	32.88472222	34.30166667	132.0125	133.6930556	Male	Adipose	50.21								"79 y.o."	"Lung cancer "																													"Measenteric fat; Same sample as SAA000632"	2016/12/12	2016/12/12
PRA000018	SAA000656	ST003	9606			E-12	"Homo sapiens"	Human	2004							Asia	Japan	Ehime	32.88472222	34.30166667	132.0125	133.6930556	Male	Adipose	81.58								"70 y.o."	"Perforation of gastro-intestinal tract, pneumocystis carini pneumonia "																													"Measenteric fat; Same sample as SAA000629"	2016/12/12	2016/12/12
PRA000018	SAA000657	ST003	9606			E-13	"Homo sapiens"	Human	2004							Asia	Japan	Ehime	32.88472222	34.30166667	132.0125	133.6930556	Male	Adipose	75.41								"73 y.o."	"Gastric cancer, malgnant lymphoma "																													"Measenteric fat; Same sample as SAA000630"	2016/12/12	2016/12/12
PRA000018	SAA000658	ST003	9606			E-15	"Homo sapiens"	Human	2004							Asia	Japan	Ehime	32.88472222	34.30166667	132.0125	133.6930556	Male	Adipose	73.54								"81 y.o."	"Metastatic liver cancer "																													"Measenteric fat; Same sample as SAA000635"	2016/12/12	2016/12/12
PRA000018	SAA000659	ST003	9606			E-16	"Homo sapiens"	Human	2004							Asia	Japan	Ehime	32.88472222	34.30166667	132.0125	133.6930556	Male	Adipose	53.52								"41 y.o."	"Liposarcoma, liver metastasis, lung metastasis "																													"Measenteric fat; Same sample as SAA000622"	2016/12/12	2016/12/12
PRA000018	SAA000660	ST003	9606			E-17	"Homo sapiens"	Human	2004							Asia	Japan	Ehime	32.88472222	34.30166667	132.0125	133.6930556	Female	Adipose	70.22								"62 y.o."	"Multiple systemic atrophy "																													"Measenteric fat; Same sample as SAA000641"	2016/12/12	2016/12/12
PRA000018	SAA000661	ST003	9606			E-18	"Homo sapiens"	Human	2004							Asia	Japan	Ehime	32.88472222	34.30166667	132.0125	133.6930556	Female	Adipose	71.5								"76 y.o."	"Gastric cancer, lung cancer "																													"Measenteric fat; Same sample as SAA000643"	2016/12/12	2016/12/12
PRA000018	SAA000662	ST003	9606			E-19	"Homo sapiens"	Human	2004							Asia	Japan	Ehime	32.88472222	34.30166667	132.0125	133.6930556	Female	Adipose	75.76								"71 y.o."	"Breast cancer, lymphoangitis carcinomatosa, idiopathic interstitial pneumonia "																													"Measenteric fat; Same sample as SAA000644"	2016/12/12	2016/12/12
PRA000018	SAA000663	ST003	9606			E-21	"Homo sapiens"	Human	2004							Asia	Japan	Ehime	32.88472222	34.30166667	132.0125	133.6930556	Male	Adipose	72.87								"62 y.o."	"Amyotrophic lateral sclerosis"																													"Measenteric fat"	2016/12/12	2016/12/12
PRA000018	SAA000664	ST003	9606			E-22	"Homo sapiens"	Human	2004							Asia	Japan	Ehime	32.88472222	34.30166667	132.0125	133.6930556	Male	Adipose	60.01								"81 y.o."	"Idiopathic pulmopnary fibrosis, Aspiration pneumonia"																													"Measenteric fat"	2016/12/12	2016/12/12
PRA000018	SAA000665	ST003	9606			E-23	"Homo sapiens"	Human	2004							Asia	Japan	Ehime	32.88472222	34.30166667	132.0125	133.6930556	Male	Adipose	52.34								"75 y.o."	"Hepatocellular carcinoma"																													"Measenteric fat"	2016/12/12	2016/12/12
PRA000018	SAA000666	ST003	9606			E-24	"Homo sapiens"	Human	2004							Asia	Japan	Ehime	32.88472222	34.30166667	132.0125	133.6930556	Male	Adipose	67.44								"75 y.o."	"Hepatocellular carcinoma"																													"Measenteric fat"	2016/12/12	2016/12/12
PRA000018	SAA000667	ST003	9606			E-25	"Homo sapiens"	Human	2004							Asia	Japan	Ehime	32.88472222	34.30166667	132.0125	133.6930556	Male	Adipose	45.88								"63 y.o."	"Lung cancer"																													"Measenteric fat"	2016/12/12	2016/12/12
PRA000018	SAA000668	ST003	9606			E-26	"Homo sapiens"	Human	2004							Asia	Japan	Ehime	32.88472222	34.30166667	132.0125	133.6930556	Female	Adipose	68.46								"70 y.o."	"Fulminant hepatitis"																													"Measenteric fat"	2016/12/12	2016/12/12
PRA000018	SAA000669	ST003	9606			E-27	"Homo sapiens"	Human	2004							Asia	Japan	Ehime	32.88472222	34.30166667	132.0125	133.6930556	Female	Adipose	69.25								"74 y.o."	"Fulminant hepatitis"																													"Measenteric fat"	2016/12/12	2016/12/12
PRA000018	SAA000670	ST003	9606			E-28	"Homo sapiens"	Human	2004							Asia	Japan	Ehime	32.88472222	34.30166667	132.0125	133.6930556	Male	Adipose	59.01								"55 y.o."	"Lung cancer"																													"Measenteric fat"	2016/12/12	2016/12/12
PRA000018	SAA000671	ST003	9606			E-29	"Homo sapiens"	Human	2004							Asia	Japan	Ehime	32.88472222	34.30166667	132.0125	133.6930556	Female	Adipose	81.96								"76 y.o."	"Multiple organ failure"																													"Measenteric fat"	2016/12/12	2016/12/12
PRA000018	SAA000672	ST003	9606			E-30	"Homo sapiens"	Human	2004							Asia	Japan	Ehime	32.88472222	34.30166667	132.0125	133.6930556	Female	Adipose	63.1								"72 y.o."	"Interstitial pneumonia"																													"Measenteric fat"	2016/12/12	2016/12/12
PRA000018	SAA000673	ST003	9606			211	"Homo sapiens"	Human	2003							Asia	Japan	Kanto	34.917714	36.28333333	138.7113889	140.857758	Male	Adipose	61.95								"81 y.o."	Hepatocarcinoma																													"Measenteric fat"	2016/12/12	2016/12/12
PRA000018	SAA000674	ST003	9606			212	"Homo sapiens"	Human	2003							Asia	Japan	Kanto	34.917714	36.28333333	138.7113889	140.857758	Female	Adipose	83.11								"62 y.o."	"Breast cancer"																													"Measenteric fat; Same sample as SAA000642"	2016/12/12	2016/12/12
PRA000018	SAA000675	ST003	9606			215	"Homo sapiens"	Human	2003							Asia	Japan	Kanto	34.917714	36.28333333	138.7113889	140.857758	Male	Adipose	46.62								"58 y.o."	"Acute myelocytic leukemia "																													"Measenteric fat; Same sample as SAA000625"	2016/12/12	2016/12/12
PRA000018	SAA000676	ST003	9606			216	"Homo sapiens"	Human	2003							Asia	Japan	Kanto	34.917714	36.28333333	138.7113889	140.857758	Male	Adipose	67.94								"84 y.o."	"Lung cancer"																													"Measenteric fat"	2016/12/12	2016/12/12
PRA000018	SAA000677	ST003	9606			217	"Homo sapiens"	Human	2003							Asia	Japan	Kanto	34.917714	36.28333333	138.7113889	140.857758	Male	Adipose	74.07								"81 y.o."	"Cardiac infarction "																													"Measenteric fat; Same sample as SAA000636"	2016/12/12	2016/12/12
PRA000018	SAA000678	ST003	9606			218	"Homo sapiens"	Human	2003							Asia	Japan	Kanto	34.917714	36.28333333	138.7113889	140.857758	Female	Adipose	63.06								"83 y.o."	"Lung cancer"																													"Measenteric fat; Same sample as SAA000645"	2016/12/12	2016/12/12
PRA000018	SAA000679	ST003	9606			219	"Homo sapiens"	Human	2003							Asia	Japan	Kanto	34.917714	36.28333333	138.7113889	140.857758	Male	Adipose	68.85								"79 y.o."	"Malignant lymphoma "																													"Measenteric fat; Same sample as SAA000633"	2016/12/12	2016/12/12
PRA000018	SAA000680	ST003	9606			220	"Homo sapiens"	Human	2003							Asia	Japan	Kanto	34.917714	36.28333333	138.7113889	140.857758	Female	Adipose	71.32								"109 y.o."	"Senile deterioration"																													"Measenteric fat; Same sample as SAA000646"	2016/12/12	2016/12/12
PRA000018	SAA000681	ST003	9606			221	"Homo sapiens"	Human	2003							Asia	Japan	Kanto	34.917714	36.28333333	138.7113889	140.857758	Male	Adipose	56.79								"60 y.o."	"Hepatocellular carcinoma "																													"Measenteric fat; Same sample as SAA000626"	2016/12/12	2016/12/12
